sensor_id;sensor_type;location;lat;lon;timestamp;P1;durP1;ratioP1;P2;durP2;ratioP2
16994;SDS011;8614;48.522;9.206;2023-07-31T00:01:42;8.20;;;7.60;;
16994;SDS011;8614;48.522;9.206;2023-07-31T00:04:10;7.97;;;7.37;;
16994;SDS011;8614;48.522;9.206;2023-07-31T00:06:37;8.07;;;7.47;;
16994;SDS011;8614;48.522;9.206;2023-07-31T00:09:03;8.47;;;7.87;;
16994;SDS011;8614;48.522;9.206;2023-07-31T00:11:30;8.37;;;7.67;;
16994;SDS011;8614;48.522;9.206;2023-07-31T00:13:57;8.87;;;8.10;;
16994;SDS011;8614;48.522;9.206;2023-07-31T00:16:24;8.20;;;7.60;;
16994;SDS011;8614;48.522;9.206;2023-07-31T00:18:51;8.50;;;7.90;;
16994;SDS011;8614;48.522;9.206;2023-07-31T00:21:19;8.30;;;7.80;;
16994;SDS011;8614;48.522;9.206;2023-07-31T00:23:46;8.20;;;7.60;;
16994;SDS011;8614;48.522;9.206;2023-07-31T00:26:12;8.00;;;7.30;;
16994;SDS011;8614;48.522;9.206;2023-07-31T00:28:39;7.70;;;7.20;;
16994;SDS011;8614;48.522;9.206;2023-07-31T00:31:06;7.83;;;7.33;;
16994;SDS011;8614;48.522;9.206;2023-07-31T00:33:34;7.63;;;7.00;;
16994;SDS011;8614;48.522;9.206;2023-07-31T00:36:02;7.50;;;7.00;;
16994;SDS011;8614;48.522;9.206;2023-07-31T00:38:30;7.93;;;7.43;;
16994;SDS011;8614;48.522;9.206;2023-07-31T00:40:58;7.93;;;7.33;;
16994;SDS011;8614;48.522;9.206;2023-07-31T00:43:25;7.23;;;6.83;;
16994;SDS011;8614;48.522;9.206;2023-07-31T00:45:52;7.60;;;7.10;;
16994;SDS011;8614;48.522;9.206;2023-07-31T00:48:18;7.60;;;7.00;;
16994;SDS011;8614;48.522;9.206;2023-07-31T00:50:45;7.30;;;6.80;;
16994;SDS011;8614;48.522;9.206;2023-07-31T00:53:14;8.23;;;7.50;;
16994;SDS011;8614;48.522;9.206;2023-07-31T00:55:42;7.93;;;7.33;;
16994;SDS011;8614;48.522;9.206;2023-07-31T00:58:10;8.27;;;7.57;;
16994;SDS011;8614;48.522;9.206;2023-07-31T01:00:37;8.63;;;7.93;;
16994;SDS011;8614;48.522;9.206;2023-07-31T01:03:04;7.60;;;7.10;;
16994;SDS011;8614;48.522;9.206;2023-07-31T01:05:33;7.87;;;7.30;;
16994;SDS011;8614;48.522;9.206;2023-07-31T01:08:08;7.33;;;6.83;;
16994;SDS011;8614;48.522;9.206;2023-07-31T01:10:44;7.43;;;6.93;;
16994;SDS011;8614;48.522;9.206;2023-07-31T01:13:14;7.33;;;6.73;;
16994;SDS011;8614;48.522;9.206;2023-07-31T01:15:43;7.60;;;7.10;;
16994;SDS011;8614;48.522;9.206;2023-07-31T01:18:10;7.63;;;7.07;;
16994;SDS011;8614;48.522;9.206;2023-07-31T01:20:37;7.87;;;7.07;;
16994;SDS011;8614;48.522;9.206;2023-07-31T01:23:11;7.57;;;7.07;;
16994;SDS011;8614;48.522;9.206;2023-07-31T01:26:05;7.80;;;7.30;;
16994;SDS011;8614;48.522;9.206;2023-07-31T01:28:40;8.20;;;7.60;;
16994;SDS011;8614;48.522;9.206;2023-07-31T01:31:14;9.03;;;8.23;;
16994;SDS011;8614;48.522;9.206;2023-07-31T01:33:42;8.33;;;7.73;;
16994;SDS011;8614;48.522;9.206;2023-07-31T01:36:10;8.67;;;7.87;;
16994;SDS011;8614;48.522;9.206;2023-07-31T01:38:38;8.30;;;7.70;;
16994;SDS011;8614;48.522;9.206;2023-07-31T01:41:06;8.30;;;7.70;;
16994;SDS011;8614;48.522;9.206;2023-07-31T01:43:33;8.70;;;7.93;;
16994;SDS011;8614;48.522;9.206;2023-07-31T01:46:00;8.20;;;7.70;;
16994;SDS011;8614;48.522;9.206;2023-07-31T01:48:27;8.20;;;7.60;;
16994;SDS011;8614;48.522;9.206;2023-07-31T01:50:54;8.60;;;8.00;;
16994;SDS011;8614;48.522;9.206;2023-07-31T01:53:21;9.10;;;8.50;;
16994;SDS011;8614;48.522;9.206;2023-07-31T01:55:47;9.20;;;8.50;;
16994;SDS011;8614;48.522;9.206;2023-07-31T01:58:16;9.67;;;8.87;;
16994;SDS011;8614;48.522;9.206;2023-07-31T02:00:42;9.00;;;8.40;;
16994;SDS011;8614;48.522;9.206;2023-07-31T02:03:09;9.40;;;8.70;;
16994;SDS011;8614;48.522;9.206;2023-07-31T02:05:36;9.20;;;8.60;;
16994;SDS011;8614;48.522;9.206;2023-07-31T02:08:09;9.63;;;8.93;;
16994;SDS011;8614;48.522;9.206;2023-07-31T02:10:36;9.30;;;8.60;;
16994;SDS011;8614;48.522;9.206;2023-07-31T02:13:04;9.20;;;8.60;;
16994;SDS011;8614;48.522;9.206;2023-07-31T02:15:32;9.30;;;8.50;;
16994;SDS011;8614;48.522;9.206;2023-07-31T02:17:59;8.90;;;8.30;;
16994;SDS011;8614;48.522;9.206;2023-07-31T02:20:26;8.87;;;8.27;;
16994;SDS011;8614;48.522;9.206;2023-07-31T02:22:53;8.83;;;8.33;;
16994;SDS011;8614;48.522;9.206;2023-07-31T02:25:19;8.90;;;8.30;;
16994;SDS011;8614;48.522;9.206;2023-07-31T02:27:46;9.00;;;8.30;;
16994;SDS011;8614;48.522;9.206;2023-07-31T02:30:14;9.43;;;8.70;;
16994;SDS011;8614;48.522;9.206;2023-07-31T02:32:42;9.10;;;8.40;;
16994;SDS011;8614;48.522;9.206;2023-07-31T02:35:09;9.00;;;8.40;;
16994;SDS011;8614;48.522;9.206;2023-07-31T02:37:40;9.30;;;8.60;;
16994;SDS011;8614;48.522;9.206;2023-07-31T02:40:08;9.40;;;8.70;;
16994;SDS011;8614;48.522;9.206;2023-07-31T02:42:35;8.97;;;8.30;;
16994;SDS011;8614;48.522;9.206;2023-07-31T02:45:02;8.83;;;8.23;;
16994;SDS011;8614;48.522;9.206;2023-07-31T02:47:30;9.20;;;8.53;;
16994;SDS011;8614;48.522;9.206;2023-07-31T02:49:58;8.90;;;8.30;;
16994;SDS011;8614;48.522;9.206;2023-07-31T02:52:25;8.50;;;7.90;;
16994;SDS011;8614;48.522;9.206;2023-07-31T02:54:52;8.80;;;8.10;;
16994;SDS011;8614;48.522;9.206;2023-07-31T02:57:19;9.33;;;8.57;;
16994;SDS011;8614;48.522;9.206;2023-07-31T02:59:46;8.47;;;7.90;;
16994;SDS011;8614;48.522;9.206;2023-07-31T03:02:12;9.03;;;8.43;;
16994;SDS011;8614;48.522;9.206;2023-07-31T03:04:40;9.23;;;8.53;;
16994;SDS011;8614;48.522;9.206;2023-07-31T03:07:08;9.23;;;8.53;;
16994;SDS011;8614;48.522;9.206;2023-07-31T03:09:35;9.77;;;9.00;;
16994;SDS011;8614;48.522;9.206;2023-07-31T03:12:02;9.60;;;8.80;;
16994;SDS011;8614;48.522;9.206;2023-07-31T03:14:29;9.50;;;8.80;;
16994;SDS011;8614;48.522;9.206;2023-07-31T03:16:56;9.37;;;8.57;;
16994;SDS011;8614;48.522;9.206;2023-07-31T03:19:23;9.80;;;9.10;;
16994;SDS011;8614;48.522;9.206;2023-07-31T03:21:49;9.67;;;9.07;;
16994;SDS011;8614;48.522;9.206;2023-07-31T03:24:18;10.20;;;9.50;;
16994;SDS011;8614;48.522;9.206;2023-07-31T03:26:44;10.30;;;9.60;;
16994;SDS011;8614;48.522;9.206;2023-07-31T03:29:11;10.40;;;9.70;;
16994;SDS011;8614;48.522;9.206;2023-07-31T03:31:38;10.30;;;9.60;;
16994;SDS011;8614;48.522;9.206;2023-07-31T03:34:05;10.30;;;9.40;;
16994;SDS011;8614;48.522;9.206;2023-07-31T03:36:35;10.00;;;9.30;;
16994;SDS011;8614;48.522;9.206;2023-07-31T03:39:02;10.57;;;9.87;;
16994;SDS011;8614;48.522;9.206;2023-07-31T03:41:31;10.10;;;9.40;;
16994;SDS011;8614;48.522;9.206;2023-07-31T03:43:58;10.37;;;9.73;;
16994;SDS011;8614;48.522;9.206;2023-07-31T03:46:24;9.90;;;9.30;;
16994;SDS011;8614;48.522;9.206;2023-07-31T03:48:51;9.60;;;9.00;;
16994;SDS011;8614;48.522;9.206;2023-07-31T03:51:18;9.70;;;9.00;;
16994;SDS011;8614;48.522;9.206;2023-07-31T03:53:45;10.10;;;9.50;;
16994;SDS011;8614;48.522;9.206;2023-07-31T03:56:12;9.97;;;9.37;;
16994;SDS011;8614;48.522;9.206;2023-07-31T03:58:41;10.03;;;9.43;;
16994;SDS011;8614;48.522;9.206;2023-07-31T04:01:08;10.57;;;9.87;;
16994;SDS011;8614;48.522;9.206;2023-07-31T04:03:34;10.03;;;9.33;;
16994;SDS011;8614;48.522;9.206;2023-07-31T04:06:01;9.60;;;8.93;;
16994;SDS011;8614;48.522;9.206;2023-07-31T04:08:28;9.90;;;9.30;;
16994;SDS011;8614;48.522;9.206;2023-07-31T04:10:55;9.73;;;8.97;;
16994;SDS011;8614;48.522;9.206;2023-07-31T04:13:22;9.47;;;8.87;;
16994;SDS011;8614;48.522;9.206;2023-07-31T04:15:50;9.77;;;9.17;;
16994;SDS011;8614;48.522;9.206;2023-07-31T04:18:17;9.40;;;8.90;;
16994;SDS011;8614;48.522;9.206;2023-07-31T04:20:44;9.63;;;9.07;;
16994;SDS011;8614;48.522;9.206;2023-07-31T04:23:11;9.70;;;9.10;;
16994;SDS011;8614;48.522;9.206;2023-07-31T04:25:37;9.07;;;8.47;;
16994;SDS011;8614;48.522;9.206;2023-07-31T04:28:04;9.37;;;8.73;;
16994;SDS011;8614;48.522;9.206;2023-07-31T04:30:32;9.20;;;8.60;;
16994;SDS011;8614;48.522;9.206;2023-07-31T04:33:00;9.50;;;8.90;;
16994;SDS011;8614;48.522;9.206;2023-07-31T04:35:27;10.40;;;9.70;;
16994;SDS011;8614;48.522;9.206;2023-07-31T04:37:54;9.27;;;8.67;;
16994;SDS011;8614;48.522;9.206;2023-07-31T04:40:21;9.17;;;8.57;;
16994;SDS011;8614;48.522;9.206;2023-07-31T04:42:47;8.90;;;8.40;;
16994;SDS011;8614;48.522;9.206;2023-07-31T04:45:14;8.63;;;8.13;;
16994;SDS011;8614;48.522;9.206;2023-07-31T04:47:41;8.90;;;8.40;;
16994;SDS011;8614;48.522;9.206;2023-07-31T04:50:09;9.33;;;8.73;;
16994;SDS011;8614;48.522;9.206;2023-07-31T04:52:36;10.07;;;9.37;;
16994;SDS011;8614;48.522;9.206;2023-07-31T04:55:03;10.00;;;9.20;;
16994;SDS011;8614;48.522;9.206;2023-07-31T04:57:30;10.00;;;9.40;;
16994;SDS011;8614;48.522;9.206;2023-07-31T04:59:57;9.80;;;9.10;;
16994;SDS011;8614;48.522;9.206;2023-07-31T05:02:24;9.13;;;8.63;;
16994;SDS011;8614;48.522;9.206;2023-07-31T05:04:51;9.53;;;8.93;;
16994;SDS011;8614;48.522;9.206;2023-07-31T05:07:19;9.20;;;8.60;;
16994;SDS011;8614;48.522;9.206;2023-07-31T05:09:46;9.23;;;8.60;;
16994;SDS011;8614;48.522;9.206;2023-07-31T05:12:12;10.03;;;9.33;;
16994;SDS011;8614;48.522;9.206;2023-07-31T05:14:39;10.00;;;9.30;;
16994;SDS011;8614;48.522;9.206;2023-07-31T05:17:06;9.97;;;9.17;;
16994;SDS011;8614;48.522;9.206;2023-07-31T05:19:33;9.53;;;8.90;;
16994;SDS011;8614;48.522;9.206;2023-07-31T05:21:59;9.20;;;8.60;;
16994;SDS011;8614;48.522;9.206;2023-07-31T05:24:28;9.63;;;9.00;;
16994;SDS011;8614;48.522;9.206;2023-07-31T05:26:54;9.33;;;8.73;;
16994;SDS011;8614;48.522;9.206;2023-07-31T05:29:21;9.50;;;8.87;;
16994;SDS011;8614;48.522;9.206;2023-07-31T05:31:48;9.50;;;8.90;;
16994;SDS011;8614;48.522;9.206;2023-07-31T05:34:15;9.50;;;8.90;;
16994;SDS011;8614;48.522;9.206;2023-07-31T05:36:41;11.40;;;8.63;;
16994;SDS011;8614;48.522;9.206;2023-07-31T05:39:08;9.50;;;8.83;;
16994;SDS011;8614;48.522;9.206;2023-07-31T05:41:36;9.73;;;9.03;;
16994;SDS011;8614;48.522;9.206;2023-07-31T05:44:03;9.70;;;9.00;;
16994;SDS011;8614;48.522;9.206;2023-07-31T05:46:30;9.50;;;8.90;;
16994;SDS011;8614;48.522;9.206;2023-07-31T05:48:57;9.20;;;8.50;;
16994;SDS011;8614;48.522;9.206;2023-07-31T05:51:25;9.30;;;8.60;;
16994;SDS011;8614;48.522;9.206;2023-07-31T05:53:52;9.20;;;8.60;;
16994;SDS011;8614;48.522;9.206;2023-07-31T05:56:19;9.60;;;8.90;;
16994;SDS011;8614;48.522;9.206;2023-07-31T05:58:48;9.63;;;8.80;;
16994;SDS011;8614;48.522;9.206;2023-07-31T06:01:16;9.30;;;8.70;;
16994;SDS011;8614;48.522;9.206;2023-07-31T06:03:42;9.23;;;8.53;;
16994;SDS011;8614;48.522;9.206;2023-07-31T06:06:09;10.07;;;9.27;;
16994;SDS011;8614;48.522;9.206;2023-07-31T06:08:36;9.23;;;8.70;;
16994;SDS011;8614;48.522;9.206;2023-07-31T06:11:03;9.40;;;8.80;;
16994;SDS011;8614;48.522;9.206;2023-07-31T06:13:30;9.17;;;8.57;;
16994;SDS011;8614;48.522;9.206;2023-07-31T06:15:58;8.90;;;8.30;;
16994;SDS011;8614;48.522;9.206;2023-07-31T06:18:27;9.20;;;8.53;;
16994;SDS011;8614;48.522;9.206;2023-07-31T06:20:54;8.83;;;8.27;;
16994;SDS011;8614;48.522;9.206;2023-07-31T06:23:21;9.00;;;8.40;;
16994;SDS011;8614;48.522;9.206;2023-07-31T06:25:48;8.67;;;7.97;;
16994;SDS011;8614;48.522;9.206;2023-07-31T06:28:15;9.30;;;8.17;;
16994;SDS011;8614;48.522;9.206;2023-07-31T06:30:41;7.90;;;7.30;;
16994;SDS011;8614;48.522;9.206;2023-07-31T06:33:10;7.90;;;7.30;;
16994;SDS011;8614;48.522;9.206;2023-07-31T06:35:36;7.77;;;7.17;;
16994;SDS011;8614;48.522;9.206;2023-07-31T06:38:03;7.90;;;7.20;;
16994;SDS011;8614;48.522;9.206;2023-07-31T06:40:30;7.77;;;7.10;;
16994;SDS011;8614;48.522;9.206;2023-07-31T06:42:57;7.70;;;7.10;;
16994;SDS011;8614;48.522;9.206;2023-07-31T06:45:24;7.80;;;7.13;;
16994;SDS011;8614;48.522;9.206;2023-07-31T06:47:50;7.60;;;6.90;;
16994;SDS011;8614;48.522;9.206;2023-07-31T06:50:18;7.37;;;6.80;;
16994;SDS011;8614;48.522;9.206;2023-07-31T06:52:45;6.17;;;5.60;;
16994;SDS011;8614;48.522;9.206;2023-07-31T06:55:16;8.57;;;7.97;;
16994;SDS011;8614;48.522;9.206;2023-07-31T06:57:44;3.93;;;2.87;;
16994;SDS011;8614;48.522;9.206;2023-07-31T07:00:11;6.37;;;5.47;;
16994;SDS011;8614;48.522;9.206;2023-07-31T07:02:38;5.80;;;5.20;;
16994;SDS011;8614;48.522;9.206;2023-07-31T07:05:06;4.20;;;3.17;;
16994;SDS011;8614;48.522;9.206;2023-07-31T07:07:34;5.07;;;3.13;;
16994;SDS011;8614;48.522;9.206;2023-07-31T07:10:02;3.67;;;3.37;;
16994;SDS011;8614;48.522;9.206;2023-07-31T07:12:30;6.23;;;3.20;;
16994;SDS011;8614;48.522;9.206;2023-07-31T07:14:58;3.67;;;2.90;;
16994;SDS011;8614;48.522;9.206;2023-07-31T07:17:25;3.83;;;3.53;;
16994;SDS011;8614;48.522;9.206;2023-07-31T07:19:53;4.63;;;3.13;;
16994;SDS011;8614;48.522;9.206;2023-07-31T07:22:21;3.57;;;2.90;;
16994;SDS011;8614;48.522;9.206;2023-07-31T07:24:49;7.77;;;7.27;;
16994;SDS011;8614;48.522;9.206;2023-07-31T07:27:16;7.00;;;6.07;;
16994;SDS011;8614;48.522;9.206;2023-07-31T07:29:42;3.93;;;3.07;;
16994;SDS011;8614;48.522;9.206;2023-07-31T07:32:09;2.87;;;2.63;;
16994;SDS011;8614;48.522;9.206;2023-07-31T07:34:37;4.63;;;3.80;;
16994;SDS011;8614;48.522;9.206;2023-07-31T07:37:04;7.30;;;6.70;;
16994;SDS011;8614;48.522;9.206;2023-07-31T07:39:31;7.83;;;7.33;;
16994;SDS011;8614;48.522;9.206;2023-07-31T07:41:59;8.33;;;7.73;;
16994;SDS011;8614;48.522;9.206;2023-07-31T07:44:26;9.57;;;8.87;;
16994;SDS011;8614;48.522;9.206;2023-07-31T07:46:53;6.53;;;3.73;;
16994;SDS011;8614;48.522;9.206;2023-07-31T07:49:19;5.07;;;3.43;;
16994;SDS011;8614;48.522;9.206;2023-07-31T07:51:47;5.77;;;4.70;;
16994;SDS011;8614;48.522;9.206;2023-07-31T07:54:14;5.43;;;4.20;;
16994;SDS011;8614;48.522;9.206;2023-07-31T07:56:42;9.10;;;8.30;;
16994;SDS011;8614;48.522;9.206;2023-07-31T07:59:10;5.10;;;4.03;;
16994;SDS011;8614;48.522;9.206;2023-07-31T08:01:37;7.43;;;5.30;;
16994;SDS011;8614;48.522;9.206;2023-07-31T08:04:04;5.30;;;4.70;;
16994;SDS011;8614;48.522;9.206;2023-07-31T08:06:31;6.33;;;5.00;;
16994;SDS011;8614;48.522;9.206;2023-07-31T08:08:58;6.40;;;4.70;;
16994;SDS011;8614;48.522;9.206;2023-07-31T08:11:30;5.33;;;4.83;;
16994;SDS011;8614;48.522;9.206;2023-07-31T08:13:57;6.20;;;5.40;;
16994;SDS011;8614;48.522;9.206;2023-07-31T08:16:25;5.97;;;4.27;;
16994;SDS011;8614;48.522;9.206;2023-07-31T08:18:52;9.07;;;8.32;;
16994;SDS011;8614;48.522;9.206;2023-07-31T08:21:19;9.88;;;9.10;;
16994;SDS011;8614;48.522;9.206;2023-07-31T08:23:45;7.53;;;6.93;;
16994;SDS011;8614;48.522;9.206;2023-07-31T08:26:14;8.70;;;7.90;;
16994;SDS011;8614;48.522;9.206;2023-07-31T08:28:41;6.50;;;6.00;;
16994;SDS011;8614;48.522;9.206;2023-07-31T08:31:08;6.27;;;5.77;;
16994;SDS011;8614;48.522;9.206;2023-07-31T08:33:37;5.67;;;5.17;;
16994;SDS011;8614;48.522;9.206;2023-07-31T08:36:04;6.07;;;5.47;;
16994;SDS011;8614;48.522;9.206;2023-07-31T08:38:31;6.90;;;6.23;;
16994;SDS011;8614;48.522;9.206;2023-07-31T08:40:57;6.80;;;6.00;;
16994;SDS011;8614;48.522;9.206;2023-07-31T08:43:25;6.53;;;5.27;;
16994;SDS011;8614;48.522;9.206;2023-07-31T08:45:53;5.33;;;4.57;;
16994;SDS011;8614;48.522;9.206;2023-07-31T08:48:20;3.40;;;3.00;;
16994;SDS011;8614;48.522;9.206;2023-07-31T08:50:50;5.10;;;4.70;;
16994;SDS011;8614;48.522;9.206;2023-07-31T08:53:18;4.57;;;3.60;;
16994;SDS011;8614;48.522;9.206;2023-07-31T08:55:45;4.67;;;3.30;;
16994;SDS011;8614;48.522;9.206;2023-07-31T08:58:13;5.77;;;3.50;;
16994;SDS011;8614;48.522;9.206;2023-07-31T09:00:41;4.30;;;3.03;;
16994;SDS011;8614;48.522;9.206;2023-07-31T09:03:12;4.33;;;3.67;;
16994;SDS011;8614;48.522;9.206;2023-07-31T09:05:42;5.33;;;3.33;;
16994;SDS011;8614;48.522;9.206;2023-07-31T09:08:11;5.53;;;3.87;;
16994;SDS011;8614;48.522;9.206;2023-07-31T09:10:42;6.63;;;5.30;;
16994;SDS011;8614;48.522;9.206;2023-07-31T09:13:11;7.17;;;6.57;;
16994;SDS011;8614;48.522;9.206;2023-07-31T09:15:38;7.90;;;6.03;;
16994;SDS011;8614;48.522;9.206;2023-07-31T09:18:06;9.10;;;8.40;;
16994;SDS011;8614;48.522;9.206;2023-07-31T09:20:34;8.90;;;8.10;;
16994;SDS011;8614;48.522;9.206;2023-07-31T09:23:06;7.27;;;6.60;;
16994;SDS011;8614;48.522;9.206;2023-07-31T09:25:36;6.93;;;4.70;;
16994;SDS011;8614;48.522;9.206;2023-07-31T09:28:04;8.97;;;3.90;;
16994;SDS011;8614;48.522;9.206;2023-07-31T09:30:43;5.50;;;4.43;;
16994;SDS011;8614;48.522;9.206;2023-07-31T09:33:11;6.27;;;5.17;;
16994;SDS011;8614;48.522;9.206;2023-07-31T09:35:38;7.63;;;6.80;;
16994;SDS011;8614;48.522;9.206;2023-07-31T09:38:06;7.13;;;6.47;;
16994;SDS011;8614;48.522;9.206;2023-07-31T09:40:36;7.07;;;4.80;;
16994;SDS011;8614;48.522;9.206;2023-07-31T09:43:05;5.37;;;4.87;;
16994;SDS011;8614;48.522;9.206;2023-07-31T09:45:34;8.67;;;7.87;;
16994;SDS011;8614;48.522;9.206;2023-07-31T09:48:02;7.93;;;7.37;;
16994;SDS011;8614;48.522;9.206;2023-07-31T09:50:34;7.90;;;7.20;;
16994;SDS011;8614;48.522;9.206;2023-07-31T09:53:03;7.97;;;7.23;;
16994;SDS011;8614;48.522;9.206;2023-07-31T09:55:30;9.00;;;8.20;;
16994;SDS011;8614;48.522;9.206;2023-07-31T09:57:59;8.20;;;7.50;;
16994;SDS011;8614;48.522;9.206;2023-07-31T10:00:29;8.33;;;7.57;;
16994;SDS011;8614;48.522;9.206;2023-07-31T10:02:57;7.63;;;7.03;;
16994;SDS011;8614;48.522;9.206;2023-07-31T10:05:26;6.77;;;6.27;;
16994;SDS011;8614;48.522;9.206;2023-07-31T10:07:57;6.97;;;6.37;;
16994;SDS011;8614;48.522;9.206;2023-07-31T10:10:24;7.60;;;6.80;;
16994;SDS011;8614;48.522;9.206;2023-07-31T10:12:53;7.40;;;6.80;;
16994;SDS011;8614;48.522;9.206;2023-07-31T10:15:21;6.07;;;5.53;;
16994;SDS011;8614;48.522;9.206;2023-07-31T10:17:49;6.43;;;5.82;;
16994;SDS011;8614;48.522;9.206;2023-07-31T10:20:16;5.30;;;4.77;;
16994;SDS011;8614;48.522;9.206;2023-07-31T10:22:43;7.60;;;7.00;;
16994;SDS011;8614;48.522;9.206;2023-07-31T10:25:12;7.00;;;6.10;;
16994;SDS011;8614;48.522;9.206;2023-07-31T10:27:39;6.73;;;6.07;;
16994;SDS011;8614;48.522;9.206;2023-07-31T10:30:07;6.13;;;4.83;;
16994;SDS011;8614;48.522;9.206;2023-07-31T10:32:37;6.07;;;3.50;;
16994;SDS011;8614;48.522;9.206;2023-07-31T10:35:06;7.20;;;5.50;;
16994;SDS011;8614;48.522;9.206;2023-07-31T10:37:36;5.07;;;3.55;;
16994;SDS011;8614;48.522;9.206;2023-07-31T10:40:04;6.20;;;3.40;;
16994;SDS011;8614;48.522;9.206;2023-07-31T10:42:33;8.47;;;7.67;;
16994;SDS011;8614;48.522;9.206;2023-07-31T10:45:02;7.73;;;7.03;;
16994;SDS011;8614;48.522;9.206;2023-07-31T10:47:29;6.90;;;6.33;;
16994;SDS011;8614;48.522;9.206;2023-07-31T10:50:15;8.90;;;8.00;;
16994;SDS011;8614;48.522;9.206;2023-07-31T10:52:46;6.40;;;5.67;;
16994;SDS011;8614;48.522;9.206;2023-07-31T10:55:14;6.63;;;6.00;;
16994;SDS011;8614;48.522;9.206;2023-07-31T10:57:52;4.90;;;4.00;;
16994;SDS011;8614;48.522;9.206;2023-07-31T11:00:20;3.90;;;3.40;;
16994;SDS011;8614;48.522;9.206;2023-07-31T11:05:43;8.37;;;7.67;;
16994;SDS011;8614;48.522;9.206;2023-07-31T11:08:12;6.00;;;5.40;;
16994;SDS011;8614;48.522;9.206;2023-07-31T11:10:40;5.70;;;5.13;;
16994;SDS011;8614;48.522;9.206;2023-07-31T11:13:07;6.87;;;5.33;;
16994;SDS011;8614;48.522;9.206;2023-07-31T11:15:33;5.53;;;5.00;;
16994;SDS011;8614;48.522;9.206;2023-07-31T11:18:00;5.90;;;5.40;;
16994;SDS011;8614;48.522;9.206;2023-07-31T11:20:30;5.13;;;4.63;;
16994;SDS011;8614;48.522;9.206;2023-07-31T11:23:00;4.70;;;3.30;;
16994;SDS011;8614;48.522;9.206;2023-07-31T11:25:28;5.80;;;3.53;;
16994;SDS011;8614;48.522;9.206;2023-07-31T11:27:56;4.60;;;3.30;;
16994;SDS011;8614;48.522;9.206;2023-07-31T11:30:23;5.13;;;3.57;;
16994;SDS011;8614;48.522;9.206;2023-07-31T11:32:50;5.93;;;3.30;;
16994;SDS011;8614;48.522;9.206;2023-07-31T11:35:17;4.63;;;3.00;;
16994;SDS011;8614;48.522;9.206;2023-07-31T11:37:44;4.97;;;3.20;;
16994;SDS011;8614;48.522;9.206;2023-07-31T11:40:12;4.00;;;3.00;;
16994;SDS011;8614;48.522;9.206;2023-07-31T11:42:39;5.00;;;3.50;;
16994;SDS011;8614;48.522;9.206;2023-07-31T11:45:07;4.40;;;3.23;;
16994;SDS011;8614;48.522;9.206;2023-07-31T11:47:35;3.60;;;3.13;;
16994;SDS011;8614;48.522;9.206;2023-07-31T11:50:04;4.23;;;3.77;;
16994;SDS011;8614;48.522;9.206;2023-07-31T11:52:33;5.60;;;5.10;;
16994;SDS011;8614;48.522;9.206;2023-07-31T11:55:04;4.50;;;3.60;;
16994;SDS011;8614;48.522;9.206;2023-07-31T11:57:36;5.50;;;5.00;;
16994;SDS011;8614;48.522;9.206;2023-07-31T12:00:04;6.60;;;6.00;;
16994;SDS011;8614;48.522;9.206;2023-07-31T12:02:33;7.43;;;6.93;;
16994;SDS011;8614;48.522;9.206;2023-07-31T12:05:00;8.10;;;7.30;;
16994;SDS011;8614;48.522;9.206;2023-07-31T12:07:35;8.50;;;7.80;;
16994;SDS011;8614;48.522;9.206;2023-07-31T12:10:09;7.77;;;7.10;;
16994;SDS011;8614;48.522;9.206;2023-07-31T12:12:37;5.80;;;4.60;;
16994;SDS011;8614;48.522;9.206;2023-07-31T12:15:13;4.90;;;4.37;;
16994;SDS011;8614;48.522;9.206;2023-07-31T12:17:40;8.23;;;7.47;;
16994;SDS011;8614;48.522;9.206;2023-07-31T12:20:08;4.83;;;3.47;;
16994;SDS011;8614;48.522;9.206;2023-07-31T12:22:35;5.27;;;4.37;;
16994;SDS011;8614;48.522;9.206;2023-07-31T12:25:02;6.53;;;5.93;;
16994;SDS011;8614;48.522;9.206;2023-07-31T12:27:32;4.90;;;4.40;;
16994;SDS011;8614;48.522;9.206;2023-07-31T12:30:01;6.17;;;4.53;;
16994;SDS011;8614;48.522;9.206;2023-07-31T12:32:30;9.10;;;7.60;;
16994;SDS011;8614;48.522;9.206;2023-07-31T12:34:59;7.07;;;6.37;;
16994;SDS011;8614;48.522;9.206;2023-07-31T12:37:28;5.57;;;3.57;;
16994;SDS011;8614;48.522;9.206;2023-07-31T12:39:55;5.10;;;3.70;;
16994;SDS011;8614;48.522;9.206;2023-07-31T12:42:25;4.90;;;4.07;;
16994;SDS011;8614;48.522;9.206;2023-07-31T12:44:52;6.17;;;3.80;;
16994;SDS011;8614;48.522;9.206;2023-07-31T12:47:21;5.73;;;3.43;;
16994;SDS011;8614;48.522;9.206;2023-07-31T12:49:47;4.57;;;3.57;;
16994;SDS011;8614;48.522;9.206;2023-07-31T12:52:14;4.87;;;3.37;;
16994;SDS011;8614;48.522;9.206;2023-07-31T12:54:41;5.60;;;5.10;;
16994;SDS011;8614;48.522;9.206;2023-07-31T12:57:08;6.77;;;6.00;;
16994;SDS011;8614;48.522;9.206;2023-07-31T12:59:34;6.23;;;5.60;;
16994;SDS011;8614;48.522;9.206;2023-07-31T13:02:01;7.07;;;4.10;;
16994;SDS011;8614;48.522;9.206;2023-07-31T13:04:29;5.20;;;4.20;;
16994;SDS011;8614;48.522;9.206;2023-07-31T13:06:56;6.83;;;4.20;;
16994;SDS011;8614;48.522;9.206;2023-07-31T13:09:23;6.37;;;3.87;;
16994;SDS011;8614;48.522;9.206;2023-07-31T13:11:50;7.70;;;4.07;;
16994;SDS011;8614;48.522;9.206;2023-07-31T13:14:17;6.63;;;3.70;;
16994;SDS011;8614;48.522;9.206;2023-07-31T13:16:44;4.83;;;3.70;;
16994;SDS011;8614;48.522;9.206;2023-07-31T13:19:10;6.70;;;3.73;;
16994;SDS011;8614;48.522;9.206;2023-07-31T13:21:38;6.27;;;3.90;;
16994;SDS011;8614;48.522;9.206;2023-07-31T13:24:05;4.50;;;3.83;;
16994;SDS011;8614;48.522;9.206;2023-07-31T13:26:32;5.43;;;3.90;;
16994;SDS011;8614;48.522;9.206;2023-07-31T13:28:59;4.77;;;4.00;;
16994;SDS011;8614;48.522;9.206;2023-07-31T13:31:26;5.27;;;4.40;;
16994;SDS011;8614;48.522;9.206;2023-07-31T13:33:52;6.70;;;4.10;;
16994;SDS011;8614;48.522;9.206;2023-07-31T13:36:19;4.77;;;3.60;;
16994;SDS011;8614;48.522;9.206;2023-07-31T13:38:47;3.77;;;3.40;;
16994;SDS011;8614;48.522;9.206;2023-07-31T13:41:14;6.10;;;3.60;;
16994;SDS011;8614;48.522;9.206;2023-07-31T13:43:41;5.80;;;3.70;;
16994;SDS011;8614;48.522;9.206;2023-07-31T13:46:10;5.57;;;3.70;;
16994;SDS011;8614;48.522;9.206;2023-07-31T13:48:37;6.20;;;4.60;;
16994;SDS011;8614;48.522;9.206;2023-07-31T13:51:04;5.77;;;5.00;;
16994;SDS011;8614;48.522;9.206;2023-07-31T13:53:31;8.17;;;5.80;;
16994;SDS011;8614;48.522;9.206;2023-07-31T13:55:59;7.50;;;6.80;;
16994;SDS011;8614;48.522;9.206;2023-07-31T13:58:26;4.37;;;3.47;;
16994;SDS011;8614;48.522;9.206;2023-07-31T14:00:53;5.10;;;3.50;;
16994;SDS011;8614;48.522;9.206;2023-07-31T14:03:19;4.77;;;3.47;;
16994;SDS011;8614;48.522;9.206;2023-07-31T14:05:46;5.07;;;3.90;;
16994;SDS011;8614;48.522;9.206;2023-07-31T14:08:13;7.47;;;6.67;;
16994;SDS011;8614;48.522;9.206;2023-07-31T14:10:40;8.20;;;7.47;;
16994;SDS011;8614;48.522;9.206;2023-07-31T14:13:08;8.17;;;7.43;;
16994;SDS011;8614;48.522;9.206;2023-07-31T14:15:35;8.23;;;7.53;;
16994;SDS011;8614;48.522;9.206;2023-07-31T14:18:01;6.50;;;6.00;;
16994;SDS011;8614;48.522;9.206;2023-07-31T14:20:28;5.27;;;3.53;;
16994;SDS011;8614;48.522;9.206;2023-07-31T14:22:56;6.17;;;4.40;;
16994;SDS011;8614;48.522;9.206;2023-07-31T14:25:24;5.50;;;4.90;;
16994;SDS011;8614;48.522;9.206;2023-07-31T14:27:51;6.17;;;5.57;;
16994;SDS011;8614;48.522;9.206;2023-07-31T14:30:19;8.57;;;7.70;;
16994;SDS011;8614;48.522;9.206;2023-07-31T14:32:46;5.07;;;3.47;;
16994;SDS011;8614;48.522;9.206;2023-07-31T14:35:13;4.90;;;3.83;;
16994;SDS011;8614;48.522;9.206;2023-07-31T14:37:40;7.90;;;7.30;;
16994;SDS011;8614;48.522;9.206;2023-07-31T14:40:08;4.90;;;3.57;;
16994;SDS011;8614;48.522;9.206;2023-07-31T14:42:36;8.07;;;7.40;;
16994;SDS011;8614;48.522;9.206;2023-07-31T14:45:04;3.83;;;3.23;;
16994;SDS011;8614;48.522;9.206;2023-07-31T14:47:33;4.70;;;3.33;;
16994;SDS011;8614;48.522;9.206;2023-07-31T14:50:04;5.80;;;5.03;;
16994;SDS011;8614;48.522;9.206;2023-07-31T14:52:55;4.17;;;3.40;;
16994;SDS011;8614;48.522;9.206;2023-07-31T14:55:22;5.47;;;3.13;;
16994;SDS011;8614;48.522;9.206;2023-07-31T14:57:50;4.33;;;3.10;;
16994;SDS011;8614;48.522;9.206;2023-07-31T15:00:17;4.23;;;3.30;;
16994;SDS011;8614;48.522;9.206;2023-07-31T15:02:46;3.40;;;3.10;;
16994;SDS011;8614;48.522;9.206;2023-07-31T15:05:13;3.70;;;3.10;;
16994;SDS011;8614;48.522;9.206;2023-07-31T15:07:40;4.37;;;3.40;;